createdAt,value
2022-12-31T00:00:05.694Z,133.57
2022-12-31T00:02:32.269Z,130.97
2022-12-31T00:04:59.007Z,122.43
2022-12-31T00:07:25.519Z,146.30
2022-12-31T00:09:52.029Z,145.27
2022-12-31T00:12:18.573Z,150.00
2022-12-31T00:14:45.057Z,167.27
2022-12-31T00:17:11.778Z,169.87
2022-12-31T00:19:38.408Z,162.47
2022-12-31T00:22:04.971Z,157.70
2022-12-31T00:24:31.563Z,156.23
2022-12-31T00:26:58.091Z,157.37
2022-12-31T00:29:24.694Z,153.60
2022-12-31T00:31:51.218Z,143.00
2022-12-31T00:34:17.705Z,148.67
2022-12-31T00:36:46.184Z,156.23
2022-12-31T00:39:12.859Z,149.40
2022-12-31T00:41:39.458Z,139.40
2022-12-31T00:44:05.991Z,142.47
2022-12-31T00:46:32.541Z,148.67
2022-12-31T00:48:59.136Z,151.37
2022-12-31T00:51:27.790Z,142.97
2022-12-31T00:53:54.914Z,146.20
2022-12-31T00:56:22.147Z,138.77
2022-12-31T00:58:48.731Z,143.87
2022-12-31T01:01:16.960Z,140.57
2022-12-31T01:03:43.997Z,140.77
2022-12-31T01:06:10.651Z,132.57
2022-12-31T01:08:37.249Z,138.00
2022-12-31T01:11:22.856Z,132.53
2022-12-31T01:13:49.940Z,135.93
2022-12-31T01:16:16.704Z,138.67
2022-12-31T01:18:43.895Z,132.30
2022-12-31T01:21:10.935Z,125.93
2022-12-31T01:23:37.462Z,134.47
2022-12-31T01:26:04.463Z,125.43
2022-12-31T01:28:31.073Z,130.50
2022-12-31T01:30:57.622Z,135.13
2022-12-31T01:33:24.179Z,137.77
2022-12-31T01:35:50.828Z,137.10
2022-12-31T01:38:17.360Z,141.47
2022-12-31T01:40:44.024Z,137.73
2022-12-31T01:43:15.486Z,137.23
2022-12-31T01:45:42.156Z,131.60
2022-12-31T01:48:08.822Z,128.33
2022-12-31T01:50:35.338Z,124.23
2022-12-31T01:53:04.091Z,131.07
2022-12-31T01:55:32.223Z,131.47
2022-12-31T01:58:05.669Z,123.53
2022-12-31T02:00:32.670Z,115.00
2022-12-31T02:02:59.249Z,106.97
2022-12-31T02:05:26.000Z,104.57
2022-12-31T02:07:52.580Z,100.10
2022-12-31T02:10:19.177Z,83.40
2022-12-31T02:12:46.117Z,70.63
2022-12-31T02:15:12.646Z,76.00
2022-12-31T02:17:43.395Z,77.83
2022-12-31T02:20:19.044Z,75.23
2022-12-31T02:22:45.511Z,74.60
2022-12-31T02:25:12.210Z,66.63
2022-12-31T02:27:57.156Z,64.73
2022-12-31T02:30:23.932Z,64.73
2022-12-31T02:32:53.507Z,63.53
2022-12-31T02:35:22.254Z,60.13
2022-12-31T02:37:50.546Z,52.43
2022-12-31T02:40:17.785Z,49.37
2022-12-31T02:42:45.576Z,54.37
2022-12-31T02:45:14.280Z,52.43
2022-12-31T02:47:40.742Z,47.67
2022-12-31T02:50:29.376Z,47.80
2022-12-31T02:53:06.103Z,48.40
2022-12-31T02:55:35.816Z,42.53
2022-12-31T02:58:08.386Z,42.40
2022-12-31T03:00:53.881Z,37.00
2022-12-31T03:03:20.406Z,37.77
2022-12-31T03:05:46.937Z,35.23
2022-12-31T03:08:20.396Z,37.27
2022-12-31T03:10:46.981Z,32.97
2022-12-31T03:13:13.476Z,32.30
2022-12-31T03:15:39.977Z,32.23
2022-12-31T03:18:06.476Z,29.20
2022-12-31T03:20:55.188Z,29.77
2022-12-31T03:23:25.883Z,25.93
2022-12-31T03:25:53.526Z,27.43
2022-12-31T03:28:21.445Z,26.60
2022-12-31T03:30:48.744Z,25.97
2022-12-31T03:33:15.673Z,22.80
2022-12-31T03:35:42.653Z,25.47
2022-12-31T03:38:09.323Z,25.10
2022-12-31T03:40:39.855Z,26.27
2022-12-31T03:43:06.706Z,27.33
2022-12-31T03:45:34.443Z,29.03
2022-12-31T03:48:01.469Z,27.13
2022-12-31T03:50:28.163Z,29.57
2022-12-31T03:52:54.728Z,30.43
2022-12-31T03:55:21.243Z,28.20
2022-12-31T03:57:47.748Z,28.83
2022-12-31T04:00:15.047Z,24.67
2022-12-31T04:02:41.906Z,23.87
2022-12-31T04:05:08.480Z,26.13
2022-12-31T04:07:35.063Z,24.73
2022-12-31T04:10:01.535Z,21.70
2022-12-31T04:12:28.085Z,22.97
2022-12-31T04:14:54.559Z,21.10
2022-12-31T04:17:21.145Z,21.93
2022-12-31T04:19:47.660Z,23.43
2022-12-31T04:22:14.244Z,20.30
2022-12-31T04:24:41.638Z,21.27
2022-12-31T04:27:08.291Z,23.43
2022-12-31T04:29:35.160Z,22.00
2022-12-31T04:32:01.759Z,22.90
2022-12-31T04:34:28.401Z,21.47
2022-12-31T04:36:54.898Z,21.87
2022-12-31T04:39:21.434Z,20.70
2022-12-31T04:41:48.069Z,20.40
2022-12-31T04:44:14.667Z,20.10
2022-12-31T04:46:41.245Z,20.90
2022-12-31T04:49:07.809Z,20.93
2022-12-31T04:51:34.365Z,21.50
2022-12-31T04:54:00.958Z,15.47
2022-12-31T04:56:27.695Z,16.77
2022-12-31T04:58:54.264Z,23.03
2022-12-31T05:01:21.041Z,19.33
2022-12-31T05:03:47.745Z,19.43
2022-12-31T05:06:18.289Z,18.00
2022-12-31T05:08:44.899Z,20.33
2022-12-31T05:11:11.610Z,22.77
2022-12-31T05:13:38.352Z,20.77
2022-12-31T05:16:04.999Z,19.40
2022-12-31T05:18:31.703Z,20.83
2022-12-31T05:20:58.274Z,18.83
2022-12-31T05:23:25.007Z,19.43
2022-12-31T05:25:51.546Z,15.23
2022-12-31T05:28:18.113Z,18.93
2022-12-31T05:30:44.854Z,16.90
2022-12-31T05:33:11.463Z,17.73
2022-12-31T05:35:38.106Z,18.73
2022-12-31T05:38:04.647Z,17.77
2022-12-31T05:40:31.682Z,15.03
2022-12-31T05:42:58.260Z,15.27
2022-12-31T05:45:30.316Z,17.00
2022-12-31T05:47:57.657Z,14.30
2022-12-31T05:50:24.172Z,13.87
2022-12-31T05:52:50.848Z,14.67
2022-12-31T05:55:17.393Z,12.47
2022-12-31T05:57:43.914Z,13.53
2022-12-31T06:00:10.655Z,13.67
2022-12-31T06:02:37.283Z,11.50
2022-12-31T06:05:04.024Z,12.00
2022-12-31T06:07:30.540Z,12.00
2022-12-31T06:09:57.041Z,11.43
2022-12-31T06:12:23.614Z,12.27
2022-12-31T06:14:50.094Z,10.07
2022-12-31T06:17:16.715Z,12.17
2022-12-31T06:19:43.231Z,12.37
2022-12-31T06:22:09.780Z,9.87
2022-12-31T06:24:36.315Z,8.60
2022-12-31T06:27:02.806Z,10.43
2022-12-31T06:29:29.343Z,10.57
2022-12-31T06:31:55.938Z,11.07
2022-12-31T06:34:22.471Z,10.67
2022-12-31T06:36:49.287Z,12.63
2022-12-31T06:39:15.817Z,10.27
2022-12-31T06:41:42.402Z,9.90
2022-12-31T06:44:08.965Z,9.80
2022-12-31T06:46:35.644Z,9.37
2022-12-31T06:49:02.295Z,10.53
2022-12-31T06:51:28.799Z,11.47
2022-12-31T06:53:55.464Z,10.60
2022-12-31T06:56:26.547Z,12.23
2022-12-31T06:58:56.336Z,12.77
2022-12-31T07:01:30.809Z,11.40
2022-12-31T07:04:00.985Z,10.47
2022-12-31T07:06:34.643Z,10.17
2022-12-31T07:09:13.303Z,11.03
2022-12-31T07:12:00.102Z,9.43
2022-12-31T07:14:35.387Z,8.67
2022-12-31T07:17:20.818Z,6.40
2022-12-31T07:19:49.980Z,9.83
2022-12-31T07:22:20.887Z,8.00
2022-12-31T07:24:47.724Z,8.63
2022-12-31T07:27:14.335Z,7.70
2022-12-31T07:29:40.848Z,8.00
2022-12-31T07:32:25.501Z,8.33
2022-12-31T07:35:11.130Z,11.43
2022-12-31T07:37:52.911Z,10.27
2022-12-31T07:40:38.164Z,10.93
2022-12-31T07:43:04.836Z,9.73
2022-12-31T07:45:34.143Z,13.37
2022-12-31T07:48:03.015Z,11.50
2022-12-31T07:50:29.997Z,12.73
2022-12-31T07:52:56.710Z,8.13
2022-12-31T07:55:23.216Z,10.10
2022-12-31T07:57:52.622Z,10.87
2022-12-31T08:00:19.368Z,9.00
2022-12-31T08:02:49.009Z,8.37
2022-12-31T08:05:18.793Z,8.03
2022-12-31T08:07:51.845Z,8.73
2022-12-31T08:10:21.503Z,8.30
2022-12-31T08:12:48.636Z,9.80
2022-12-31T08:15:15.793Z,7.27
2022-12-31T08:17:42.489Z,11.40
2022-12-31T08:20:12.749Z,7.30
2022-12-31T08:22:43.076Z,10.43
2022-12-31T08:25:30.389Z,8.40
2022-12-31T08:28:07.667Z,8.53
2022-12-31T08:30:39.451Z,11.73
2022-12-31T08:33:20.215Z,8.17
2022-12-31T08:36:05.216Z,8.07
2022-12-31T08:38:44.738Z,8.00
2022-12-31T08:41:21.080Z,8.40
2022-12-31T08:43:50.314Z,6.07
2022-12-31T08:46:20.128Z,8.03
2022-12-31T08:48:48.558Z,6.23
2022-12-31T08:51:19.323Z,7.07
2022-12-31T08:53:46.157Z,5.30
2022-12-31T08:56:32.367Z,7.43
2022-12-31T08:59:14.263Z,5.63
2022-12-31T09:01:59.128Z,4.67
2022-12-31T09:04:27.446Z,8.63
2022-12-31T09:06:58.727Z,8.83
2022-12-31T09:09:55.596Z,5.50
2022-12-31T09:12:40.989Z,5.83
2022-12-31T09:15:10.771Z,6.10
2022-12-31T09:17:43.854Z,7.13
2022-12-31T09:20:18.046Z,5.43
2022-12-31T09:22:44.727Z,8.00
2022-12-31T09:25:15.655Z,6.63
2022-12-31T09:28:01.084Z,7.53
2022-12-31T09:30:28.323Z,8.63
2022-12-31T09:33:13.803Z,6.30
2022-12-31T09:35:56.642Z,6.13
2022-12-31T09:38:27.462Z,6.53
2022-12-31T09:40:56.087Z,7.13
2022-12-31T09:43:34.850Z,6.23
2022-12-31T09:46:01.461Z,7.37
2022-12-31T09:48:31.108Z,5.73
2022-12-31T09:51:09.619Z,5.87
2022-12-31T09:53:38.775Z,4.70
2022-12-31T09:56:17.664Z,5.83
2022-12-31T09:58:45.549Z,6.20
2022-12-31T10:01:23.800Z,4.33
2022-12-31T10:04:20.097Z,3.83
2022-12-31T10:07:05.449Z,2.67
2022-12-31T10:09:50.352Z,4.73
2022-12-31T10:12:22.476Z,4.03
2022-12-31T10:15:08.594Z,3.47
2022-12-31T10:17:38.009Z,4.83
2022-12-31T10:20:05.638Z,2.67
2022-12-31T10:22:42.233Z,5.40
2022-12-31T10:25:39.651Z,3.70
2022-12-31T10:28:07.043Z,2.43
2022-12-31T10:30:36.533Z,3.20
2022-12-31T10:33:29.170Z,4.23
2022-12-31T10:36:14.618Z,2.73
2022-12-31T10:38:47.254Z,3.47
2022-12-31T10:41:13.925Z,2.07
2022-12-31T10:43:46.699Z,2.57
2022-12-31T10:46:20.882Z,2.53
2022-12-31T10:49:22.026Z,2.38
2022-12-31T10:51:57.672Z,2.33
2022-12-31T10:54:48.646Z,2.40
2022-12-31T10:57:15.317Z,2.80
2022-12-31T10:59:44.928Z,3.53
2022-12-31T11:02:30.572Z,2.92
2022-12-31T11:05:00.230Z,2.27
2022-12-31T11:07:30.019Z,2.77
2022-12-31T11:09:59.592Z,3.23
2022-12-31T11:12:37.946Z,2.40
2022-12-31T11:15:22.802Z,3.33
2022-12-31T11:17:56.110Z,3.10
2022-12-31T11:20:41.224Z,2.00
2022-12-31T11:23:12.253Z,2.05
2022-12-31T11:25:38.817Z,5.10
2022-12-31T11:28:08.199Z,3.30
2022-12-31T11:30:47.874Z,2.20
2022-12-31T11:33:17.413Z,2.13
2022-12-31T11:35:50.650Z,2.53
2022-12-31T11:38:20.207Z,4.25
2022-12-31T11:41:07.012Z,2.30
2022-12-31T11:43:41.611Z,3.40
2022-12-31T11:46:27.108Z,3.53
2022-12-31T11:49:02.922Z,3.10
2022-12-31T11:51:38.426Z,2.55
2022-12-31T11:54:08.052Z,3.40
2022-12-31T11:56:38.260Z,2.90
2022-12-31T11:59:12.074Z,4.10
2022-12-31T12:01:47.205Z,4.80
2022-12-31T12:04:13.866Z,3.22
2022-12-31T12:06:40.426Z,4.65
2022-12-31T12:09:10.795Z,2.53
2022-12-31T12:11:40.599Z,3.35
2022-12-31T12:14:23.176Z,3.88
2022-12-31T12:16:56.743Z,5.63
2022-12-31T12:19:26.645Z,5.18
2022-12-31T12:21:53.497Z,4.35
2022-12-31T12:24:26.781Z,4.30
2022-12-31T12:26:53.417Z,2.55
2022-12-31T12:29:29.964Z,3.35
2022-12-31T12:32:06.838Z,5.55
2022-12-31T12:34:37.247Z,6.50
2022-12-31T12:37:03.829Z,5.63
2022-12-31T12:39:31.269Z,3.20
2022-12-31T12:42:01.611Z,3.78
2022-12-31T12:44:28.238Z,4.47
2022-12-31T12:46:55.198Z,3.65
2022-12-31T12:49:48.034Z,3.85
2022-12-31T12:52:14.571Z,3.35
2022-12-31T12:55:07.586Z,3.40
2022-12-31T12:57:51.348Z,3.20
2022-12-31T13:00:21.876Z,4.78
2022-12-31T13:02:54.604Z,3.25
2022-12-31T13:05:36.428Z,4.25
2022-12-31T13:08:15.108Z,10.52
2022-12-31T13:10:58.556Z,3.22
2022-12-31T13:13:29.439Z,3.58
2022-12-31T13:16:05.216Z,2.70
2022-12-31T13:18:58.141Z,3.22
2022-12-31T13:21:30.933Z,3.45
2022-12-31T13:24:07.086Z,2.70
2022-12-31T13:26:33.619Z,4.47
2022-12-31T13:29:00.380Z,3.35
2022-12-31T13:31:30.714Z,5.20
2022-12-31T13:33:59.588Z,2.92
2022-12-31T13:36:26.859Z,5.80
2022-12-31T13:38:54.151Z,2.88
2022-12-31T13:41:28.365Z,3.15
2022-12-31T13:43:54.947Z,3.53
2022-12-31T13:46:30.692Z,4.38
2022-12-31T13:48:58.466Z,4.28
2022-12-31T13:51:45.361Z,4.25
2022-12-31T13:54:14.896Z,3.95
2022-12-31T13:56:41.628Z,4.18
2022-12-31T13:59:27.094Z,3.83
2022-12-31T14:02:23.310Z,4.43
2022-12-31T14:04:50.818Z,4.18
2022-12-31T14:07:35.369Z,5.30
2022-12-31T14:10:09.700Z,4.95
2022-12-31T14:12:42.531Z,4.05
2022-12-31T14:15:27.981Z,6.85
2022-12-31T14:17:54.536Z,7.88
2022-12-31T14:20:27.305Z,4.38
2022-12-31T14:23:13.024Z,5.63
2022-12-31T14:25:41.101Z,4.60
2022-12-31T14:28:07.965Z,6.45
2022-12-31T14:30:35.550Z,6.43
2022-12-31T14:33:05.733Z,5.68
2022-12-31T14:35:35.551Z,6.40
2022-12-31T14:38:16.890Z,6.07
2022-12-31T14:40:46.459Z,4.78
2022-12-31T14:43:28.733Z,6.80
2022-12-31T14:46:00.487Z,6.15
2022-12-31T14:48:36.826Z,5.72
2022-12-31T14:51:03.519Z,6.65
2022-12-31T14:53:30.149Z,6.10
2022-12-31T14:56:06.585Z,8.50
2022-12-31T14:58:37.006Z,7.97
2022-12-31T15:01:10.348Z,8.60
2022-12-31T15:03:46.003Z,6.55
2022-12-31T15:06:18.983Z,7.05
2022-12-31T15:08:56.501Z,6.60
2022-12-31T15:11:27.722Z,8.43
2022-12-31T15:14:03.889Z,7.80
2022-12-31T15:16:34.773Z,9.60
2022-12-31T15:19:03.063Z,8.38
2022-12-31T15:21:48.471Z,8.65
2022-12-31T15:24:33.802Z,10.93
2022-12-31T15:27:04.329Z,11.52
2022-12-31T15:29:41.841Z,9.55
2022-12-31T15:32:08.666Z,10.98
2022-12-31T15:34:35.999Z,11.52
2022-12-31T15:37:03.589Z,11.02
2022-12-31T15:39:30.118Z,10.52
2022-12-31T15:44:51.969Z,13.75
2022-12-31T15:47:29.550Z,13.32
2022-12-31T15:49:56.399Z,15.52
2022-12-31T15:52:24.883Z,12.35
2022-12-31T15:54:51.804Z,14.52
2022-12-31T15:57:19.536Z,11.05
2022-12-31T15:59:46.227Z,17.42
2022-12-31T16:02:18.690Z,10.65
2022-12-31T16:04:45.501Z,13.02
2022-12-31T16:07:12.096Z,10.07
2022-12-31T16:09:38.703Z,9.63
2022-12-31T16:12:09.265Z,11.40
2022-12-31T16:14:37.035Z,8.48
2022-12-31T16:17:03.683Z,7.78
2022-12-31T16:19:41.160Z,6.65
2022-12-31T16:22:08.842Z,6.15
2022-12-31T16:24:48.903Z,4.93
2022-12-31T16:27:22.000Z,5.95
2022-12-31T16:29:55.476Z,7.57
2022-12-31T16:32:22.472Z,6.22
2022-12-31T16:34:49.260Z,5.65
2022-12-31T16:37:16.877Z,6.00
2022-12-31T16:40:02.298Z,6.32
2022-12-31T16:42:28.996Z,7.53
2022-12-31T16:44:56.098Z,8.98
2022-12-31T16:47:23.837Z,7.50
2022-12-31T16:49:51.114Z,6.47
2022-12-31T16:52:28.247Z,7.47
2022-12-31T16:54:54.997Z,6.53
2022-12-31T16:57:22.105Z,10.10
2022-12-31T16:59:48.896Z,8.68
2022-12-31T17:02:19.619Z,8.73
2022-12-31T17:04:55.745Z,8.30
2022-12-31T17:07:26.982Z,11.60
2022-12-31T17:10:03.339Z,6.65
2022-12-31T17:12:30.039Z,8.48
2022-12-31T17:14:57.597Z,8.63
2022-12-31T17:17:24.977Z,9.52
2022-12-31T17:19:51.928Z,7.50
2022-12-31T17:22:31.627Z,11.85
2022-12-31T17:25:08.212Z,7.25
2022-12-31T17:27:35.053Z,9.38
2022-12-31T17:30:20.451Z,8.97
2022-12-31T17:32:50.095Z,9.68
2022-12-31T17:35:30.151Z,9.23
2022-12-31T17:38:16.674Z,10.85
2022-12-31T17:40:52.006Z,9.35
2022-12-31T17:43:19.523Z,8.63
2022-12-31T17:45:46.592Z,9.10
2022-12-31T17:48:14.120Z,8.18
2022-12-31T17:50:47.637Z,6.95
2022-12-31T17:53:14.233Z,8.32
2022-12-31T17:55:42.248Z,10.73
2022-12-31T17:58:09.168Z,11.00
2022-12-31T18:00:35.813Z,8.23
2022-12-31T18:03:03.794Z,9.15
2022-12-31T18:05:30.371Z,7.38
2022-12-31T18:07:57.002Z,5.97
2022-12-31T18:10:24.022Z,5.60
2022-12-31T18:12:50.592Z,6.93
2022-12-31T18:15:17.949Z,7.03
2022-12-31T18:17:44.578Z,6.65
2022-12-31T18:20:11.242Z,7.10
2022-12-31T18:22:38.527Z,6.88
2022-12-31T18:25:06.802Z,4.95
2022-12-31T18:27:34.879Z,6.35
2022-12-31T18:30:05.507Z,6.00
2022-12-31T18:32:34.543Z,5.03
2022-12-31T18:35:02.101Z,6.25
2022-12-31T18:37:28.978Z,6.90
2022-12-31T18:39:56.158Z,4.88
2022-12-31T18:42:23.337Z,6.15
2022-12-31T18:44:49.888Z,8.95
2022-12-31T18:47:17.287Z,9.02
2022-12-31T18:49:45.043Z,8.60
2022-12-31T18:52:15.110Z,6.40
2022-12-31T18:54:41.846Z,6.95
2022-12-31T18:57:09.413Z,6.68
2022-12-31T18:59:35.968Z,6.90
2022-12-31T19:02:02.685Z,5.20
2022-12-31T19:04:29.333Z,5.80
2022-12-31T19:06:56.568Z,7.15
2022-12-31T19:09:44.553Z,6.93
2022-12-31T19:12:13.272Z,7.25
2022-12-31T19:14:39.901Z,9.57
2022-12-31T19:19:31.990Z,9.73
2022-12-31T19:21:58.522Z,6.40
2022-12-31T19:24:26.768Z,7.40
2022-12-31T19:26:53.643Z,6.22
2022-12-31T19:29:23.930Z,5.20
2022-12-31T19:31:50.527Z,5.82
2022-12-31T19:34:17.150Z,5.82
2022-12-31T19:36:44.297Z,4.88
2022-12-31T19:39:13.795Z,7.30
2022-12-31T19:41:41.787Z,5.10
2022-12-31T19:44:12.360Z,5.70
2022-12-31T19:46:38.864Z,4.68
2022-12-31T19:49:05.503Z,6.03
2022-12-31T19:51:32.037Z,6.88
2022-12-31T19:53:58.587Z,6.40
2022-12-31T19:56:25.116Z,6.07
2022-12-31T19:58:51.801Z,4.57
2022-12-31T20:01:22.422Z,5.25
2022-12-31T20:03:49.080Z,4.10
2022-12-31T20:06:15.808Z,7.03
2022-12-31T20:08:46.659Z,5.47
2022-12-31T20:11:17.747Z,5.30
2022-12-31T20:13:44.291Z,5.93
2022-12-31T20:16:13.122Z,7.60
2022-12-31T20:18:41.892Z,7.45
2022-12-31T20:21:12.634Z,6.32
2022-12-31T20:23:39.206Z,6.70
2022-12-31T20:26:05.858Z,7.78
2022-12-31T20:28:32.396Z,7.13
2022-12-31T20:30:59.036Z,8.07
2022-12-31T20:33:25.719Z,7.65
2022-12-31T20:35:52.370Z,9.98
2022-12-31T20:38:19.241Z,7.15
2022-12-31T20:40:47.109Z,8.30
2022-12-31T20:43:14.127Z,9.38
2022-12-31T20:45:41.225Z,10.43
2022-12-31T20:48:07.839Z,13.52
2022-12-31T20:50:34.398Z,11.77
2022-12-31T20:53:01.049Z,11.02
2022-12-31T20:55:27.696Z,11.85
2022-12-31T20:57:54.267Z,11.25
2022-12-31T21:00:20.982Z,11.05
2022-12-31T21:02:56.358Z,10.68
2022-12-31T21:05:27.675Z,12.07
2022-12-31T21:07:54.411Z,11.45
2022-12-31T21:10:20.955Z,12.27
2022-12-31T21:12:53.399Z,13.02
2022-12-31T21:15:20.457Z,19.38
2022-12-31T21:17:47.046Z,12.95
2022-12-31T21:20:13.673Z,17.30
2022-12-31T21:22:40.285Z,17.95
2022-12-31T21:25:07.026Z,16.73
2022-12-31T21:27:33.622Z,18.80
2022-12-31T21:32:46.797Z,19.63
2022-12-31T21:38:03.548Z,18.50
2022-12-31T21:40:30.297Z,19.05
2022-12-31T21:42:56.926Z,18.40
2022-12-31T21:45:23.641Z,15.57
2022-12-31T21:48:08.809Z,13.57
2022-12-31T21:50:35.394Z,16.33
2022-12-31T21:53:03.313Z,16.40
2022-12-31T21:55:48.568Z,16.92
2022-12-31T21:58:25.880Z,15.82
2022-12-31T22:01:12.653Z,16.10
2022-12-31T22:03:39.511Z,18.67
2022-12-31T22:06:12.682Z,18.23
2022-12-31T22:08:39.679Z,18.13
2022-12-31T22:11:06.233Z,18.02
2022-12-31T22:13:33.140Z,17.42
2022-12-31T22:16:04.902Z,18.67
2022-12-31T22:18:34.558Z,17.30
2022-12-31T22:21:04.942Z,14.63
2022-12-31T22:23:31.872Z,16.70
2022-12-31T22:25:58.464Z,12.68
2022-12-31T22:28:38.090Z,12.77
2022-12-31T22:31:06.192Z,13.52
2022-12-31T22:33:32.774Z,12.63
2022-12-31T22:36:00.151Z,12.60
2022-12-31T22:38:27.042Z,11.70
2022-12-31T22:41:00.808Z,11.77
2022-12-31T22:43:27.445Z,10.55
2022-12-31T22:45:53.984Z,11.05
2022-12-31T22:48:20.506Z,11.27
2022-12-31T22:50:53.929Z,11.95
2022-12-31T22:53:20.432Z,13.90
2022-12-31T22:55:46.967Z,25.48
2022-12-31T22:58:13.488Z,19.58
2022-12-31T23:00:40.533Z,31.15
2022-12-31T23:03:08.130Z,43.00
2022-12-31T23:05:35.174Z,34.70
2022-12-31T23:08:06.071Z,36.55
2022-12-31T23:10:55.743Z,54.78
2022-12-31T23:13:45.891Z,66.20
2022-12-31T23:16:35.037Z,60.60
2022-12-31T23:19:20.252Z,44.17
2022-12-31T23:22:05.867Z,30.45
2022-12-31T23:24:32.395Z,23.67
2022-12-31T23:26:59.057Z,22.25
2022-12-31T23:29:25.673Z,22.05
2022-12-31T23:31:52.773Z,23.65
2022-12-31T23:34:19.543Z,22.73
2022-12-31T23:36:46.095Z,22.55
2022-12-31T23:39:13.567Z,26.00
2022-12-31T23:41:40.194Z,25.73
2022-12-31T23:44:06.810Z,25.00
2022-12-31T23:46:33.514Z,25.45
2022-12-31T23:49:03.113Z,21.95
2022-12-31T23:51:29.735Z,25.42
2022-12-31T23:53:56.269Z,21.20
2022-12-31T23:56:28.804Z,17.60
2022-12-31T23:58:55.656Z,16.50
